sensor_id;sensor_type;location;lat;lon;timestamp;temperature;humidity
50556;DHT22;36508;52.512;13.450;2023-09-19T00:00:56;18.80;99.90
50556;DHT22;36508;52.512;13.450;2023-09-19T00:03:22;18.80;99.90
50556;DHT22;36508;52.512;13.450;2023-09-19T00:05:48;18.80;99.90
50556;DHT22;36508;52.512;13.450;2023-09-19T00:08:15;18.80;99.90
50556;DHT22;36508;52.512;13.450;2023-09-19T00:10:42;18.80;99.90
50556;DHT22;36508;52.512;13.450;2023-09-19T00:13:08;18.80;99.90
50556;DHT22;36508;52.512;13.450;2023-09-19T00:15:40;18.70;99.90
50556;DHT22;36508;52.512;13.450;2023-09-19T00:18:06;18.70;99.90
50556;DHT22;36508;52.512;13.450;2023-09-19T00:20:32;18.60;99.90
50556;DHT22;36508;52.512;13.450;2023-09-19T00:23:00;18.70;99.90
50556;DHT22;36508;52.512;13.450;2023-09-19T00:25:33;18.60;99.90
50556;DHT22;36508;52.512;13.450;2023-09-19T00:28:01;18.60;99.90
50556;DHT22;36508;52.512;13.450;2023-09-19T00:30:27;18.60;99.90
50556;DHT22;36508;52.512;13.450;2023-09-19T00:32:52;18.60;99.90
50556;DHT22;36508;52.512;13.450;2023-09-19T00:35:18;18.70;99.90
50556;DHT22;36508;52.512;13.450;2023-09-19T00:37:50;18.70;99.90
50556;DHT22;36508;52.512;13.450;2023-09-19T00:40:16;18.60;99.90
50556;DHT22;36508;52.512;13.450;2023-09-19T00:42:44;18.50;99.90
50556;DHT22;36508;52.512;13.450;2023-09-19T00:45:12;18.50;99.90
50556;DHT22;36508;52.512;13.450;2023-09-19T00:47:42;18.50;99.90
50556;DHT22;36508;52.512;13.450;2023-09-19T00:50:10;18.50;99.90
50556;DHT22;36508;52.512;13.450;2023-09-19T00:52:37;18.50;99.90
50556;DHT22;36508;52.512;13.450;2023-09-19T00:55:05;18.40;99.90
50556;DHT22;36508;52.512;13.450;2023-09-19T00:57:33;18.60;99.90
50556;DHT22;36508;52.512;13.450;2023-09-19T01:00:00;18.60;99.90
50556;DHT22;36508;52.512;13.450;2023-09-19T01:02:26;18.60;99.90
50556;DHT22;36508;52.512;13.450;2023-09-19T01:04:55;18.50;99.90
50556;DHT22;36508;52.512;13.450;2023-09-19T01:07:20;18.40;99.90
50556;DHT22;36508;52.512;13.450;2023-09-19T01:09:48;18.40;99.90
50556;DHT22;36508;52.512;13.450;2023-09-19T01:12:16;18.40;99.90
50556;DHT22;36508;52.512;13.450;2023-09-19T01:14:55;18.30;99.90
50556;DHT22;36508;52.512;13.450;2023-09-19T01:17:42;18.40;99.90
50556;DHT22;36508;52.512;13.450;2023-09-19T01:23:21;18.50;99.90
50556;DHT22;36508;52.512;13.450;2023-09-19T01:26:17;18.50;99.90
50556;DHT22;36508;52.512;13.450;2023-09-19T01:31:58;18.50;99.90
50556;DHT22;36508;52.512;13.450;2023-09-19T01:34:26;18.60;99.90
50556;DHT22;36508;52.512;13.450;2023-09-19T01:36:52;18.50;99.90
50556;DHT22;36508;52.512;13.450;2023-09-19T01:39:17;18.50;99.90
50556;DHT22;36508;52.512;13.450;2023-09-19T01:42:09;18.50;99.90
50556;DHT22;36508;52.512;13.450;2023-09-19T01:47:37;18.40;99.90
50556;DHT22;36508;52.512;13.450;2023-09-19T01:52:47;18.40;99.90
50556;DHT22;36508;52.512;13.450;2023-09-19T01:55:15;18.40;99.90
50556;DHT22;36508;52.512;13.450;2023-09-19T01:57:54;18.40;99.90
50556;DHT22;36508;52.512;13.450;2023-09-19T02:00:24;18.40;99.90
50556;DHT22;36508;52.512;13.450;2023-09-19T02:02:51;18.20;99.90
50556;DHT22;36508;52.512;13.450;2023-09-19T02:05:24;18.30;99.90
50556;DHT22;36508;52.512;13.450;2023-09-19T02:07:51;18.30;99.90
50556;DHT22;36508;52.512;13.450;2023-09-19T02:10:18;18.30;99.90
50556;DHT22;36508;52.512;13.450;2023-09-19T02:12:43;18.30;99.90
50556;DHT22;36508;52.512;13.450;2023-09-19T02:15:10;18.20;99.90
50556;DHT22;36508;52.512;13.450;2023-09-19T02:17:35;18.10;99.90
50556;DHT22;36508;52.512;13.450;2023-09-19T02:20:01;18.10;99.90
50556;DHT22;36508;52.512;13.450;2023-09-19T02:22:28;18.10;99.90
50556;DHT22;36508;52.512;13.450;2023-09-19T02:24:55;18.20;99.90
50556;DHT22;36508;52.512;13.450;2023-09-19T02:27:23;18.10;99.90
50556;DHT22;36508;52.512;13.450;2023-09-19T02:29:49;18.20;99.90
50556;DHT22;36508;52.512;13.450;2023-09-19T02:32:15;18.10;99.90
50556;DHT22;36508;52.512;13.450;2023-09-19T02:34:43;18.10;99.90
50556;DHT22;36508;52.512;13.450;2023-09-19T02:37:10;18.10;99.90
50556;DHT22;36508;52.512;13.450;2023-09-19T02:39:35;18.10;99.90
50556;DHT22;36508;52.512;13.450;2023-09-19T02:42:01;18.10;99.90
50556;DHT22;36508;52.512;13.450;2023-09-19T02:44:29;18.00;99.90
50556;DHT22;36508;52.512;13.450;2023-09-19T02:46:55;18.10;99.90
50556;DHT22;36508;52.512;13.450;2023-09-19T02:49:20;18.10;99.90
50556;DHT22;36508;52.512;13.450;2023-09-19T02:51:46;18.10;99.90
50556;DHT22;36508;52.512;13.450;2023-09-19T02:56:44;18.10;99.90
50556;DHT22;36508;52.512;13.450;2023-09-19T02:59:10;18.00;99.90
50556;DHT22;36508;52.512;13.450;2023-09-19T03:01:36;18.00;99.90
50556;DHT22;36508;52.512;13.450;2023-09-19T03:04:03;18.10;99.90
50556;DHT22;36508;52.512;13.450;2023-09-19T03:06:31;18.10;99.90
50556;DHT22;36508;52.512;13.450;2023-09-19T03:08:57;18.10;99.90
50556;DHT22;36508;52.512;13.450;2023-09-19T03:11:25;18.10;99.90
50556;DHT22;36508;52.512;13.450;2023-09-19T03:13:53;18.10;99.90
50556;DHT22;36508;52.512;13.450;2023-09-19T03:16:19;18.10;99.90
50556;DHT22;36508;52.512;13.450;2023-09-19T03:18:47;18.10;99.90
50556;DHT22;36508;52.512;13.450;2023-09-19T03:21:15;18.10;99.90
50556;DHT22;36508;52.512;13.450;2023-09-19T03:26:13;18.10;99.90
50556;DHT22;36508;52.512;13.450;2023-09-19T03:28:42;18.10;99.90
50556;DHT22;36508;52.512;13.450;2023-09-19T03:31:08;18.10;99.90
50556;DHT22;36508;52.512;13.450;2023-09-19T03:33:34;18.10;99.90
50556;DHT22;36508;52.512;13.450;2023-09-19T03:36:01;18.10;99.90
50556;DHT22;36508;52.512;13.450;2023-09-19T03:38:30;18.10;99.90
50556;DHT22;36508;52.512;13.450;2023-09-19T03:40:56;18.10;99.90
50556;DHT22;36508;52.512;13.450;2023-09-19T03:43:21;18.10;99.90
50556;DHT22;36508;52.512;13.450;2023-09-19T03:45:47;18.10;99.90
50556;DHT22;36508;52.512;13.450;2023-09-19T03:48:14;18.20;99.90
50556;DHT22;36508;52.512;13.450;2023-09-19T03:50:39;18.20;99.90
50556;DHT22;36508;52.512;13.450;2023-09-19T03:53:05;18.10;99.90
50556;DHT22;36508;52.512;13.450;2023-09-19T03:55:32;18.10;99.90
50556;DHT22;36508;52.512;13.450;2023-09-19T03:58:01;18.10;99.90
50556;DHT22;36508;52.512;13.450;2023-09-19T04:00:26;18.10;99.90
50556;DHT22;36508;52.512;13.450;2023-09-19T04:02:52;18.10;99.90
50556;DHT22;36508;52.512;13.450;2023-09-19T04:05:18;18.10;99.90
50556;DHT22;36508;52.512;13.450;2023-09-19T04:07:44;18.00;99.90
50556;DHT22;36508;52.512;13.450;2023-09-19T04:10:10;18.00;99.90
50556;DHT22;36508;52.512;13.450;2023-09-19T04:12:40;18.00;99.90
50556;DHT22;36508;52.512;13.450;2023-09-19T04:15:06;18.00;99.90
50556;DHT22;36508;52.512;13.450;2023-09-19T04:17:33;18.00;99.90
50556;DHT22;36508;52.512;13.450;2023-09-19T04:19:59;17.90;99.90
50556;DHT22;36508;52.512;13.450;2023-09-19T04:22:25;17.90;99.90
50556;DHT22;36508;52.512;13.450;2023-09-19T04:24:50;17.90;99.90
50556;DHT22;36508;52.512;13.450;2023-09-19T04:27:16;17.90;99.90
50556;DHT22;36508;52.512;13.450;2023-09-19T04:29:42;17.90;99.90
50556;DHT22;36508;52.512;13.450;2023-09-19T04:32:08;17.90;99.90
50556;DHT22;36508;52.512;13.450;2023-09-19T04:34:35;17.90;99.90
50556;DHT22;36508;52.512;13.450;2023-09-19T04:37:00;18.00;99.90
50556;DHT22;36508;52.512;13.450;2023-09-19T04:39:27;17.90;99.90
50556;DHT22;36508;52.512;13.450;2023-09-19T04:41:53;17.90;99.90
50556;DHT22;36508;52.512;13.450;2023-09-19T04:44:20;17.90;99.90
50556;DHT22;36508;52.512;13.450;2023-09-19T04:46:45;17.80;99.90
50556;DHT22;36508;52.512;13.450;2023-09-19T04:49:14;17.80;99.90
50556;DHT22;36508;52.512;13.450;2023-09-19T04:51:39;17.80;99.90
50556;DHT22;36508;52.512;13.450;2023-09-19T04:54:05;17.80;99.90
50556;DHT22;36508;52.512;13.450;2023-09-19T04:56:32;17.70;99.90
50556;DHT22;36508;52.512;13.450;2023-09-19T04:58:58;17.70;99.90
50556;DHT22;36508;52.512;13.450;2023-09-19T05:01:24;17.70;99.90
50556;DHT22;36508;52.512;13.450;2023-09-19T05:03:50;17.80;99.90
50556;DHT22;36508;52.512;13.450;2023-09-19T05:06:22;17.70;99.90
50556;DHT22;36508;52.512;13.450;2023-09-19T05:08:48;17.70;99.90
50556;DHT22;36508;52.512;13.450;2023-09-19T05:11:19;17.70;99.90
50556;DHT22;36508;52.512;13.450;2023-09-19T05:13:48;17.60;99.90
50556;DHT22;36508;52.512;13.450;2023-09-19T05:16:18;17.60;99.90
50556;DHT22;36508;52.512;13.450;2023-09-19T05:18:44;17.60;99.90
50556;DHT22;36508;52.512;13.450;2023-09-19T05:21:10;17.50;99.90
50556;DHT22;36508;52.512;13.450;2023-09-19T05:23:36;17.50;99.90
50556;DHT22;36508;52.512;13.450;2023-09-19T05:26:02;17.50;99.90
50556;DHT22;36508;52.512;13.450;2023-09-19T05:28:29;17.50;99.90
50556;DHT22;36508;52.512;13.450;2023-09-19T05:30:55;17.50;99.90
50556;DHT22;36508;52.512;13.450;2023-09-19T05:33:21;17.50;99.90
50556;DHT22;36508;52.512;13.450;2023-09-19T05:35:48;17.50;99.90
50556;DHT22;36508;52.512;13.450;2023-09-19T05:38:14;17.50;99.90
50556;DHT22;36508;52.512;13.450;2023-09-19T05:40:45;17.50;99.90
50556;DHT22;36508;52.512;13.450;2023-09-19T05:43:10;17.50;99.90
50556;DHT22;36508;52.512;13.450;2023-09-19T05:45:36;17.50;99.90
50556;DHT22;36508;52.512;13.450;2023-09-19T05:48:10;17.50;99.90
50556;DHT22;36508;52.512;13.450;2023-09-19T05:50:40;17.50;99.90
50556;DHT22;36508;52.512;13.450;2023-09-19T05:53:05;17.50;99.90
50556;DHT22;36508;52.512;13.450;2023-09-19T05:55:32;17.40;99.90
50556;DHT22;36508;52.512;13.450;2023-09-19T05:57:57;17.50;99.90
50556;DHT22;36508;52.512;13.450;2023-09-19T06:00:24;17.40;99.90
50556;DHT22;36508;52.512;13.450;2023-09-19T06:02:54;17.40;99.90
50556;DHT22;36508;52.512;13.450;2023-09-19T06:05:21;17.50;99.90
50556;DHT22;36508;52.512;13.450;2023-09-19T06:07:46;17.40;99.90
50556;DHT22;36508;52.512;13.450;2023-09-19T06:10:12;17.50;99.90
50556;DHT22;36508;52.512;13.450;2023-09-19T06:12:47;17.50;99.90
50556;DHT22;36508;52.512;13.450;2023-09-19T06:15:14;17.50;99.90
50556;DHT22;36508;52.512;13.450;2023-09-19T06:17:53;17.50;99.90
50556;DHT22;36508;52.512;13.450;2023-09-19T06:20:22;17.50;99.90
50556;DHT22;36508;52.512;13.450;2023-09-19T06:22:49;17.50;99.90
50556;DHT22;36508;52.512;13.450;2023-09-19T06:25:16;17.40;99.90
50556;DHT22;36508;52.512;13.450;2023-09-19T06:27:52;17.50;99.90
50556;DHT22;36508;52.512;13.450;2023-09-19T06:30:19;17.60;99.90
50556;DHT22;36508;52.512;13.450;2023-09-19T06:32:45;17.50;99.90
50556;DHT22;36508;52.512;13.450;2023-09-19T06:35:11;17.60;99.90
50556;DHT22;36508;52.512;13.450;2023-09-19T06:37:38;17.60;99.90
50556;DHT22;36508;52.512;13.450;2023-09-19T06:40:11;17.60;99.90
50556;DHT22;36508;52.512;13.450;2023-09-19T06:42:47;17.70;99.90
50556;DHT22;36508;52.512;13.450;2023-09-19T06:45:15;17.70;99.90
50556;DHT22;36508;52.512;13.450;2023-09-19T06:47:48;17.70;99.90
50556;DHT22;36508;52.512;13.450;2023-09-19T06:50:21;17.80;99.90
50556;DHT22;36508;52.512;13.450;2023-09-19T06:52:52;17.70;99.90
50556;DHT22;36508;52.512;13.450;2023-09-19T06:55:20;17.80;99.90
50556;DHT22;36508;52.512;13.450;2023-09-19T06:57:47;17.80;99.90
50556;DHT22;36508;52.512;13.450;2023-09-19T07:00:13;17.80;99.90
50556;DHT22;36508;52.512;13.450;2023-09-19T07:05:30;18.00;99.90
50556;DHT22;36508;52.512;13.450;2023-09-19T07:07:56;18.10;99.90
50556;DHT22;36508;52.512;13.450;2023-09-19T07:10:24;18.20;99.90
50556;DHT22;36508;52.512;13.450;2023-09-19T07:13:04;18.40;99.90
50556;DHT22;36508;52.512;13.450;2023-09-19T07:15:34;18.30;99.90
50556;DHT22;36508;52.512;13.450;2023-09-19T07:18:02;18.30;99.90
50556;DHT22;36508;52.512;13.450;2023-09-19T07:20:27;18.50;99.90
50556;DHT22;36508;52.512;13.450;2023-09-19T07:22:57;18.50;99.90
50556;DHT22;36508;52.512;13.450;2023-09-19T07:25:25;18.50;99.90
50556;DHT22;36508;52.512;13.450;2023-09-19T07:27:51;18.50;99.90
50556;DHT22;36508;52.512;13.450;2023-09-19T07:30:16;18.50;99.90
50556;DHT22;36508;52.512;13.450;2023-09-19T07:32:42;18.50;99.90
50556;DHT22;36508;52.512;13.450;2023-09-19T07:35:08;18.60;99.90
50556;DHT22;36508;52.512;13.450;2023-09-19T07:37:34;18.60;99.90
50556;DHT22;36508;52.512;13.450;2023-09-19T07:40:00;18.70;99.90
50556;DHT22;36508;52.512;13.450;2023-09-19T07:42:33;18.70;99.90
50556;DHT22;36508;52.512;13.450;2023-09-19T07:45:01;18.80;99.90
50556;DHT22;36508;52.512;13.450;2023-09-19T07:47:26;18.80;99.90
50556;DHT22;36508;52.512;13.450;2023-09-19T07:49:53;18.90;99.90
50556;DHT22;36508;52.512;13.450;2023-09-19T07:52:20;18.70;99.90
50556;DHT22;36508;52.512;13.450;2023-09-19T07:54:48;18.70;99.90
50556;DHT22;36508;52.512;13.450;2023-09-19T07:57:15;18.80;99.90
50556;DHT22;36508;52.512;13.450;2023-09-19T07:59:41;18.70;99.90
50556;DHT22;36508;52.512;13.450;2023-09-19T08:02:08;18.90;99.90
50556;DHT22;36508;52.512;13.450;2023-09-19T08:04:35;18.80;99.90
50556;DHT22;36508;52.512;13.450;2023-09-19T08:07:01;18.80;99.90
50556;DHT22;36508;52.512;13.450;2023-09-19T08:09:29;18.90;99.90
50556;DHT22;36508;52.512;13.450;2023-09-19T08:11:58;18.80;99.90
50556;DHT22;36508;52.512;13.450;2023-09-19T08:14:24;18.70;99.90
50556;DHT22;36508;52.512;13.450;2023-09-19T08:16:51;18.80;99.90
50556;DHT22;36508;52.512;13.450;2023-09-19T08:19:16;18.80;99.90
50556;DHT22;36508;52.512;13.450;2023-09-19T08:21:42;18.90;99.90
50556;DHT22;36508;52.512;13.450;2023-09-19T08:24:12;18.90;99.90
50556;DHT22;36508;52.512;13.450;2023-09-19T08:26:37;18.60;99.90
50556;DHT22;36508;52.512;13.450;2023-09-19T08:29:03;18.50;99.90
50556;DHT22;36508;52.512;13.450;2023-09-19T08:31:30;18.40;99.90
50556;DHT22;36508;52.512;13.450;2023-09-19T08:33:56;18.40;99.90
50556;DHT22;36508;52.512;13.450;2023-09-19T08:36:21;18.50;99.90
50556;DHT22;36508;52.512;13.450;2023-09-19T08:38:47;18.50;99.90
50556;DHT22;36508;52.512;13.450;2023-09-19T08:41:17;18.40;99.90
50556;DHT22;36508;52.512;13.450;2023-09-19T08:43:43;18.40;99.90
50556;DHT22;36508;52.512;13.450;2023-09-19T08:46:14;18.40;99.90
50556;DHT22;36508;52.512;13.450;2023-09-19T08:48:57;18.40;99.90
50556;DHT22;36508;52.512;13.450;2023-09-19T08:51:49;18.30;99.90
50556;DHT22;36508;52.512;13.450;2023-09-19T08:54:24;18.30;99.90
50556;DHT22;36508;52.512;13.450;2023-09-19T08:56:52;18.30;99.90
50556;DHT22;36508;52.512;13.450;2023-09-19T08:59:21;18.40;99.90
50556;DHT22;36508;52.512;13.450;2023-09-19T09:01:49;18.50;99.90
50556;DHT22;36508;52.512;13.450;2023-09-19T09:04:19;18.60;99.90
50556;DHT22;36508;52.512;13.450;2023-09-19T09:06:46;18.70;99.90
50556;DHT22;36508;52.512;13.450;2023-09-19T09:09:15;18.70;99.90
50556;DHT22;36508;52.512;13.450;2023-09-19T09:11:41;18.60;99.90
50556;DHT22;36508;52.512;13.450;2023-09-19T09:14:09;18.50;99.90
50556;DHT22;36508;52.512;13.450;2023-09-19T09:16:36;18.70;99.90
50556;DHT22;36508;52.512;13.450;2023-09-19T09:19:02;18.80;99.90
50556;DHT22;36508;52.512;13.450;2023-09-19T09:21:28;18.80;99.90
50556;DHT22;36508;52.512;13.450;2023-09-19T09:23:54;18.80;99.90
50556;DHT22;36508;52.512;13.450;2023-09-19T09:26:43;19.00;99.90
50556;DHT22;36508;52.512;13.450;2023-09-19T09:29:09;19.30;99.90
50556;DHT22;36508;52.512;13.450;2023-09-19T09:31:34;19.40;99.90
50556;DHT22;36508;52.512;13.450;2023-09-19T09:34:00;19.30;99.90
50556;DHT22;36508;52.512;13.450;2023-09-19T09:36:36;19.30;99.90
50556;DHT22;36508;52.512;13.450;2023-09-19T09:39:02;19.00;99.90
50556;DHT22;36508;52.512;13.450;2023-09-19T09:41:41;19.00;99.90
50556;DHT22;36508;52.512;13.450;2023-09-19T09:44:15;19.20;99.90
50556;DHT22;36508;52.512;13.450;2023-09-19T09:46:47;19.60;99.90
50556;DHT22;36508;52.512;13.450;2023-09-19T09:49:23;19.80;99.90
50556;DHT22;36508;52.512;13.450;2023-09-19T09:51:50;19.70;99.90
50556;DHT22;36508;52.512;13.450;2023-09-19T09:55:02;19.40;99.90
50556;DHT22;36508;52.512;13.450;2023-09-19T09:57:33;19.20;99.90
50556;DHT22;36508;52.512;13.450;2023-09-19T10:00:00;19.40;99.90
50556;DHT22;36508;52.512;13.450;2023-09-19T10:02:38;19.50;99.90
50556;DHT22;36508;52.512;13.450;2023-09-19T10:05:16;19.70;99.90
50556;DHT22;36508;52.512;13.450;2023-09-19T10:07:49;19.70;99.90
50556;DHT22;36508;52.512;13.450;2023-09-19T10:10:33;19.80;99.90
50556;DHT22;36508;52.512;13.450;2023-09-19T10:13:13;19.70;99.90
50556;DHT22;36508;52.512;13.450;2023-09-19T10:15:44;19.90;99.90
50556;DHT22;36508;52.512;13.450;2023-09-19T10:20:56;20.30;99.90
50556;DHT22;36508;52.512;13.450;2023-09-19T10:23:22;20.90;99.90
50556;DHT22;36508;52.512;13.450;2023-09-19T10:25:49;21.70;99.90
50556;DHT22;36508;52.512;13.450;2023-09-19T10:28:16;22.20;99.90
50556;DHT22;36508;52.512;13.450;2023-09-19T10:30:48;22.00;99.90
50556;DHT22;36508;52.512;13.450;2023-09-19T10:33:16;22.50;99.90
50556;DHT22;36508;52.512;13.450;2023-09-19T10:35:44;24.00;99.90
50556;DHT22;36508;52.512;13.450;2023-09-19T10:38:10;23.40;99.90
50556;DHT22;36508;52.512;13.450;2023-09-19T10:40:38;23.30;99.90
50556;DHT22;36508;52.512;13.450;2023-09-19T10:43:15;22.90;99.90
50556;DHT22;36508;52.512;13.450;2023-09-19T10:45:44;22.30;99.90
50556;DHT22;36508;52.512;13.450;2023-09-19T10:48:10;22.80;99.90
50556;DHT22;36508;52.512;13.450;2023-09-19T10:53:42;23.10;99.90
50556;DHT22;36508;52.512;13.450;2023-09-19T10:56:09;24.00;99.90
50556;DHT22;36508;52.512;13.450;2023-09-19T10:58:43;25.20;99.90
50556;DHT22;36508;52.512;13.450;2023-09-19T11:01:11;25.30;99.90
50556;DHT22;36508;52.512;13.450;2023-09-19T11:03:43;25.70;99.90
50556;DHT22;36508;52.512;13.450;2023-09-19T11:06:15;25.80;99.90
50556;DHT22;36508;52.512;13.450;2023-09-19T11:09:03;25.00;99.90
50556;DHT22;36508;52.512;13.450;2023-09-19T11:11:50;24.00;99.90
50556;DHT22;36508;52.512;13.450;2023-09-19T11:30:34;23.00;99.90
50556;DHT22;36508;52.512;13.450;2023-09-19T11:33:19;23.60;99.90
50556;DHT22;36508;52.512;13.450;2023-09-19T11:46:27;23.10;99.90
50556;DHT22;36508;52.512;13.450;2023-09-19T11:48:54;23.10;99.90
50556;DHT22;36508;52.512;13.450;2023-09-19T11:51:23;23.50;99.90
50556;DHT22;36508;52.512;13.450;2023-09-19T11:53:55;23.30;99.90
50556;DHT22;36508;52.512;13.450;2023-09-19T11:56:23;22.00;99.90
50556;DHT22;36508;52.512;13.450;2023-09-19T11:58:53;21.70;99.90
50556;DHT22;36508;52.512;13.450;2023-09-19T12:01:31;21.20;99.90
50556;DHT22;36508;52.512;13.450;2023-09-19T12:04:01;20.90;99.90
50556;DHT22;36508;52.512;13.450;2023-09-19T12:06:30;21.30;99.90
50556;DHT22;36508;52.512;13.450;2023-09-19T12:09:01;21.80;99.90
50556;DHT22;36508;52.512;13.450;2023-09-19T12:11:33;21.70;99.90
50556;DHT22;36508;52.512;13.450;2023-09-19T12:13:59;21.70;99.90
50556;DHT22;36508;52.512;13.450;2023-09-19T12:16:26;21.80;99.90
50556;DHT22;36508;52.512;13.450;2023-09-19T12:18:56;21.30;99.90
50556;DHT22;36508;52.512;13.450;2023-09-19T12:21:29;20.90;99.90
50556;DHT22;36508;52.512;13.450;2023-09-19T12:26:23;21.00;99.90
50556;DHT22;36508;52.512;13.450;2023-09-19T12:28:49;21.20;99.90
50556;DHT22;36508;52.512;13.450;2023-09-19T12:31:18;21.00;99.90
50556;DHT22;36508;52.512;13.450;2023-09-19T12:33:45;21.10;99.90
50556;DHT22;36508;52.512;13.450;2023-09-19T12:36:23;21.20;99.90
50556;DHT22;36508;52.512;13.450;2023-09-19T12:38:50;21.20;99.90
50556;DHT22;36508;52.512;13.450;2023-09-19T12:41:19;21.30;99.90
50556;DHT22;36508;52.512;13.450;2023-09-19T12:43:46;21.40;99.90
50556;DHT22;36508;52.512;13.450;2023-09-19T12:46:12;21.40;99.90
50556;DHT22;36508;52.512;13.450;2023-09-19T12:48:37;21.30;99.90
50556;DHT22;36508;52.512;13.450;2023-09-19T12:51:10;21.20;99.90
50556;DHT22;36508;52.512;13.450;2023-09-19T12:53:42;21.20;99.90
50556;DHT22;36508;52.512;13.450;2023-09-19T12:56:12;21.20;99.90
50556;DHT22;36508;52.512;13.450;2023-09-19T12:58:53;21.10;99.90
50556;DHT22;36508;52.512;13.450;2023-09-19T13:01:25;21.20;99.90
50556;DHT22;36508;52.512;13.450;2023-09-19T13:04:13;21.40;99.90
50556;DHT22;36508;52.512;13.450;2023-09-19T13:06:40;21.30;99.90
50556;DHT22;36508;52.512;13.450;2023-09-19T13:09:09;21.30;99.90
50556;DHT22;36508;52.512;13.450;2023-09-19T13:11:39;21.20;99.90
50556;DHT22;36508;52.512;13.450;2023-09-19T13:14:26;21.10;99.90
50556;DHT22;36508;52.512;13.450;2023-09-19T13:17:00;21.00;99.90
50556;DHT22;36508;52.512;13.450;2023-09-19T13:19:41;20.80;99.90
50556;DHT22;36508;52.512;13.450;2023-09-19T13:22:40;20.80;99.90
50556;DHT22;36508;52.512;13.450;2023-09-19T13:25:13;20.90;99.90
50556;DHT22;36508;52.512;13.450;2023-09-19T13:27:41;21.00;99.90
50556;DHT22;36508;52.512;13.450;2023-09-19T13:30:07;21.20;99.90
50556;DHT22;36508;52.512;13.450;2023-09-19T13:32:33;21.30;99.90
50556;DHT22;36508;52.512;13.450;2023-09-19T13:34:59;21.40;99.90
50556;DHT22;36508;52.512;13.450;2023-09-19T13:37:25;21.50;99.90
50556;DHT22;36508;52.512;13.450;2023-09-19T13:39:52;21.50;99.90
50556;DHT22;36508;52.512;13.450;2023-09-19T13:42:17;21.30;99.90
50556;DHT22;36508;52.512;13.450;2023-09-19T13:44:44;21.10;99.90
50556;DHT22;36508;52.512;13.450;2023-09-19T13:47:15;21.00;99.90
50556;DHT22;36508;52.512;13.450;2023-09-19T13:49:59;21.00;99.90
50556;DHT22;36508;52.512;13.450;2023-09-19T13:52:26;20.80;99.90
50556;DHT22;36508;52.512;13.450;2023-09-19T13:54:55;21.00;99.90
50556;DHT22;36508;52.512;13.450;2023-09-19T13:57:22;20.90;99.90
50556;DHT22;36508;52.512;13.450;2023-09-19T13:59:48;20.90;99.90
50556;DHT22;36508;52.512;13.450;2023-09-19T14:02:13;21.00;99.90
50556;DHT22;36508;52.512;13.450;2023-09-19T14:04:39;21.20;99.90
50556;DHT22;36508;52.512;13.450;2023-09-19T14:07:05;21.40;99.90
50556;DHT22;36508;52.512;13.450;2023-09-19T14:09:33;21.40;99.90
50556;DHT22;36508;52.512;13.450;2023-09-19T14:11:59;21.20;99.90
50556;DHT22;36508;52.512;13.450;2023-09-19T14:14:24;21.30;99.90
50556;DHT22;36508;52.512;13.450;2023-09-19T14:16:53;21.50;99.90
50556;DHT22;36508;52.512;13.450;2023-09-19T14:19:19;21.40;99.90
50556;DHT22;36508;52.512;13.450;2023-09-19T14:21:44;21.50;99.90
50556;DHT22;36508;52.512;13.450;2023-09-19T14:24:10;21.30;99.90
50556;DHT22;36508;52.512;13.450;2023-09-19T14:26:37;21.30;99.90
50556;DHT22;36508;52.512;13.450;2023-09-19T14:29:02;21.50;99.90
50556;DHT22;36508;52.512;13.450;2023-09-19T14:31:28;21.50;99.90
50556;DHT22;36508;52.512;13.450;2023-09-19T14:33:57;21.40;99.90
50556;DHT22;36508;52.512;13.450;2023-09-19T14:36:23;21.30;99.90
50556;DHT22;36508;52.512;13.450;2023-09-19T14:38:53;21.30;99.90
50556;DHT22;36508;52.512;13.450;2023-09-19T14:41:25;21.30;99.90
50556;DHT22;36508;52.512;13.450;2023-09-19T14:43:51;21.30;99.90
50556;DHT22;36508;52.512;13.450;2023-09-19T14:46:17;21.10;99.90
50556;DHT22;36508;52.512;13.450;2023-09-19T14:48:44;21.10;99.90
50556;DHT22;36508;52.512;13.450;2023-09-19T14:51:13;21.00;99.90
50556;DHT22;36508;52.512;13.450;2023-09-19T14:53:39;21.00;99.90
50556;DHT22;36508;52.512;13.450;2023-09-19T14:56:08;20.90;99.90
50556;DHT22;36508;52.512;13.450;2023-09-19T14:58:34;20.90;99.90
50556;DHT22;36508;52.512;13.450;2023-09-19T15:01:13;21.00;99.90
50556;DHT22;36508;52.512;13.450;2023-09-19T15:03:42;21.00;99.90
50556;DHT22;36508;52.512;13.450;2023-09-19T15:06:12;21.00;99.90
50556;DHT22;36508;52.512;13.450;2023-09-19T15:08:43;21.00;99.90
50556;DHT22;36508;52.512;13.450;2023-09-19T15:11:13;21.20;99.90
50556;DHT22;36508;52.512;13.450;2023-09-19T15:13:42;21.30;99.90
50556;DHT22;36508;52.512;13.450;2023-09-19T15:16:08;21.50;99.90
50556;DHT22;36508;52.512;13.450;2023-09-19T15:18:35;21.30;99.90
50556;DHT22;36508;52.512;13.450;2023-09-19T15:21:13;21.20;99.90
50556;DHT22;36508;52.512;13.450;2023-09-19T15:23:40;21.00;99.90
50556;DHT22;36508;52.512;13.450;2023-09-19T15:26:15;21.00;99.90
50556;DHT22;36508;52.512;13.450;2023-09-19T15:28:47;21.20;99.90
50556;DHT22;36508;52.512;13.450;2023-09-19T15:31:13;21.30;99.90
50556;DHT22;36508;52.512;13.450;2023-09-19T15:36:16;21.20;99.90
50556;DHT22;36508;52.512;13.450;2023-09-19T15:39:03;21.10;99.90
50556;DHT22;36508;52.512;13.450;2023-09-19T15:41:30;21.00;99.90
50556;DHT22;36508;52.512;13.450;2023-09-19T15:44:02;21.00;99.90
50556;DHT22;36508;52.512;13.450;2023-09-19T15:46:31;21.00;99.90
50556;DHT22;36508;52.512;13.450;2023-09-19T15:49:05;20.90;99.90
50556;DHT22;36508;52.512;13.450;2023-09-19T15:51:33;20.90;99.90
50556;DHT22;36508;52.512;13.450;2023-09-19T15:54:07;20.90;99.90
50556;DHT22;36508;52.512;13.450;2023-09-19T15:56:35;21.00;99.90
50556;DHT22;36508;52.512;13.450;2023-09-19T15:59:11;21.10;99.90
50556;DHT22;36508;52.512;13.450;2023-09-19T16:01:41;21.00;99.90
50556;DHT22;36508;52.512;13.450;2023-09-19T16:04:09;21.00;99.90
50556;DHT22;36508;52.512;13.450;2023-09-19T16:06:36;21.00;99.90
50556;DHT22;36508;52.512;13.450;2023-09-19T16:09:02;21.00;99.90
50556;DHT22;36508;52.512;13.450;2023-09-19T16:11:31;21.00;99.90
50556;DHT22;36508;52.512;13.450;2023-09-19T16:13:57;20.90;99.90
50556;DHT22;36508;52.512;13.450;2023-09-19T16:16:23;20.80;99.90
50556;DHT22;36508;52.512;13.450;2023-09-19T16:21:19;20.70;99.90
50556;DHT22;36508;52.512;13.450;2023-09-19T16:23:48;20.70;99.90
50556;DHT22;36508;52.512;13.450;2023-09-19T16:26:19;20.60;99.90